Time;durP1;ratioP1;P1;durP2;ratioP2;P2;SDS_P1;SDS_P2;PMS_P1;PMS_P2;Temp;Humidity;BMP_temperature;BMP_pressure;BME280_temperature;BME280_humidity;BME280_pressure;Samples;Min_cycle;Max_cycle;Signal;HPM_P1;HPM_P2
2023/10/23 00:01:56;;;;;;;12.18;4.30;;;17.00;99.90;;;;;;4881195;29;20033;-86
2023/10/23 00:04:23;;;;;;;18.80;4.65;;;17.10;99.90;;;;;;4881251;29;20037;-86
2023/10/23 00:06:49;;;;;;;10.20;4.10;;;17.10;99.90;;;;;;4881131;29;20021;-87
2023/10/23 00:09:16;;;;;;;12.05;3.75;;;17.10;99.90;;;;;;4881036;29;20105;-85
2023/10/23 00:11:42;;;;;;;23.15;4.57;;;17.20;99.90;;;;;;4881301;29;20081;-87
2023/10/23 00:14:09;;;;;;;13.68;3.85;;;17.20;99.90;;;;;;4896422;29;20534;-87
2023/10/23 00:16:35;;;;;;;18.85;4.05;;;17.30;99.90;;;;;;4896477;29;20056;-87
2023/10/23 00:19:01;;;;;;;5.45;3.30;;;17.30;99.90;;;;;;4880849;29;20041;-86
2023/10/23 00:21:28;;;;;;;14.25;4.13;;;17.40;99.90;;;;;;4896329;29;20574;-86
2023/10/23 00:23:54;;;;;;;15.55;3.72;;;17.40;99.90;;;;;;4880706;29;20029;-87
2023/10/23 00:26:20;;;;;;;13.90;4.15;;;17.40;99.90;;;;;;4880679;29;20606;-84
2023/10/23 00:28:53;;;;;;;8.93;3.67;;;17.40;99.90;;;;;;4895685;29;20136;-86
2023/10/23 00:31:19;;;;;;;13.00;4.28;;;17.30;99.90;;;;;;4880656;29;20029;-86
2023/10/23 00:33:46;;;;;;;8.43;3.80;;;17.30;99.90;;;;;;4896052;29;20494;-86
2023/10/23 00:36:12;;;;;;;8.85;3.70;;;17.20;99.90;;;;;;4880548;29;20490;-86
2023/10/23 00:38:39;;;;;;;8.45;4.07;;;17.10;99.90;;;;;;4895735;29;20507;-87
2023/10/23 00:41:05;;;;;;;11.38;3.88;;;17.10;99.90;;;;;;4880218;29;20056;-86
2023/10/23 00:43:34;;;;;;;13.43;4.05;;;17.10;99.90;;;;;;4892317;29;20029;-86
2023/10/23 00:46:06;;;;;;;8.88;3.97;;;17.10;99.90;;;;;;4880273;29;20451;-86
2023/10/23 00:48:33;;;;;;;9.45;3.85;;;17.10;99.90;;;;;;4895695;29;20037;-87
2023/10/23 00:51:03;;;;;;;9.40;4.13;;;17.00;99.90;;;;;;4880296;29;20029;-86
2023/10/23 00:53:34;;;;;;;8.60;3.80;;;16.90;99.90;;;;;;4865395;29;20079;-86
2023/10/23 00:56:07;;;;;;;12.20;3.72;;;16.90;99.90;;;;;;4895721;29;20037;-86
2023/10/23 00:58:39;;;;;;;9.17;4.47;;;16.90;99.90;;;;;;4895502;29;20081;-86
2023/10/23 01:01:12;;;;;;;9.65;3.88;;;16.80;99.90;;;;;;4895714;29;20037;-86
2023/10/23 01:03:39;;;;;;;8.52;4.07;;;16.70;99.90;;;;;;4895623;29;20441;-87
2023/10/23 01:06:06;;;;;;;6.60;3.60;;;16.70;99.90;;;;;;4895541;29;20116;-86
2023/10/23 01:08:37;;;;;;;12.45;3.78;;;16.70;99.90;;;;;;4880012;29;20037;-86
2023/10/23 01:11:03;;;;;;;7.55;3.70;;;16.70;99.90;;;;;;4895400;29;20033;-87
2023/10/23 01:13:31;;;;;;;17.83;4.28;;;16.70;99.90;;;;;;4879741;29;20494;-86
2023/10/23 01:15:57;;;;;;;9.60;4.03;;;16.80;99.90;;;;;;4879814;29;20033;-86
2023/10/23 01:18:24;;;;;;;14.27;4.65;;;16.80;99.90;;;;;;4879589;29;20029;-87
2023/10/23 01:20:50;;;;;;;12.88;3.85;;;16.90;99.90;;;;;;4894960;29;20056;-86
2023/10/23 01:23:17;;;;;;;16.90;4.25;;;16.90;99.90;;;;;;4879873;29;20120;-86
2023/10/23 01:25:43;;;;;;;15.60;4.90;;;17.00;99.90;;;;;;4894228;29;20061;-86
2023/10/23 01:28:10;;;;;;;13.25;4.82;;;17.00;99.90;;;;;;4879570;29;20530;-86
2023/10/23 01:30:38;;;;;;;15.95;5.32;;;17.10;99.90;;;;;;4879478;29;20037;-86
2023/10/23 01:33:05;;;;;;;9.07;4.50;;;17.10;99.90;;;;;;4868303;29;20060;-86
2023/10/23 01:35:31;;;;;;;17.35;4.90;;;17.20;99.90;;;;;;4848693;29;20036;-86
2023/10/23 01:37:58;;;;;;;12.77;6.90;;;17.10;99.90;;;;;;4851819;29;20125;-86
2023/10/23 01:40:24;;;;;;;12.18;6.78;;;17.10;99.90;;;;;;4895051;29;20040;-86
2023/10/23 01:42:50;;;;;;;11.63;5.28;;;17.00;99.90;;;;;;4876077;29;20021;-86
2023/10/23 01:45:18;;;;;;;11.15;5.38;;;16.90;99.90;;;;;;4860795;29;20124;-86
2023/10/23 01:47:45;;;;;;;12.85;5.85;;;16.90;99.90;;;;;;4876333;29;20036;-87
2023/10/23 01:50:12;;;;;;;7.65;5.90;;;16.90;99.90;;;;;;4876711;29;20057;-86
2023/10/23 01:52:41;;;;;;;11.07;5.85;;;16.90;99.90;;;;;;4846672;29;20022;-85
2023/10/23 01:55:08;;;;;;;15.60;5.63;;;16.80;99.90;;;;;;4877459;29;20058;-86
2023/10/23 01:57:35;;;;;;;12.50;5.85;;;16.70;99.90;;;;;;4862009;29;20041;-86
2023/10/23 02:00:04;;;;;;;8.98;6.32;;;16.70;99.90;;;;;;4878837;29;20124;-86
2023/10/23 02:02:38;;;;;;;11.77;5.88;;;16.60;99.90;;;;;;4876505;29;20053;-85
2023/10/23 02:05:05;;;;;;;12.32;5.65;;;16.40;99.90;;;;;;4877553;29;20105;-85
2023/10/23 02:07:32;;;;;;;14.18;5.53;;;16.30;99.90;;;;;;4877472;29;20034;-85
2023/10/23 02:09:58;;;;;;;20.95;6.82;;;16.30;99.90;;;;;;4877964;29;20049;-83
2023/10/23 02:12:25;;;;;;;14.45;5.30;;;16.30;99.90;;;;;;4882317;29;20055;-86
2023/10/23 02:14:52;;;;;;;11.75;5.53;;;16.20;99.90;;;;;;4894554;29;20040;-85
2023/10/23 02:17:20;;;;;;;11.55;5.82;;;16.30;99.90;;;;;;4894342;29;20025;-86
2023/10/23 02:19:47;;;;;;;9.73;5.00;;;16.20;99.90;;;;;;4900263;29;20131;-86
2023/10/23 02:22:14;;;;;;;11.30;5.60;;;16.20;99.90;;;;;;4897570;29;20032;-86
2023/10/23 02:24:47;;;;;;;10.27;4.78;;;16.10;99.90;;;;;;4882276;29;20490;-86
2023/10/23 02:27:14;;;;;;;10.35;5.50;;;16.10;99.90;;;;;;4866721;29;20115;-86
2023/10/23 02:29:41;;;;;;;8.48;5.00;;;16.00;99.90;;;;;;4882017;29;20028;-85
2023/10/23 02:32:08;;;;;;;10.95;5.13;;;16.00;99.90;;;;;;4882247;29;20490;-85
2023/10/23 02:34:36;;;;;;;13.68;5.78;;;16.00;99.90;;;;;;4897611;29;20103;-86
2023/10/23 02:37:03;;;;;;;17.23;5.50;;;16.00;99.90;;;;;;4882312;29;20060;-86
2023/10/23 02:39:30;;;;;;;12.07;4.80;;;16.00;99.90;;;;;;4885408;29;20494;-85
2023/10/23 02:41:56;;;;;;;9.52;5.50;;;16.00;99.90;;;;;;4900959;29;20024;-85
2023/10/23 02:44:23;;;;;;;11.52;4.65;;;16.00;99.90;;;;;;4904475;29;20036;-85
2023/10/23 02:46:50;;;;;;;15.80;5.28;;;16.00;99.90;;;;;;4920073;29;20051;-86
2023/10/23 02:49:16;;;;;;;12.43;4.95;;;15.90;99.90;;;;;;4904059;29;20036;-86
2023/10/23 02:51:43;;;;;;;11.23;4.65;;;15.90;99.90;;;;;;4904057;29;20060;-86
2023/10/23 02:54:10;;;;;;;11.77;5.30;;;15.90;99.90;;;;;;4904146;29;20039;-86
2023/10/23 02:56:36;;;;;;;15.57;5.38;;;15.80;99.90;;;;;;4903916;29;20398;-85
2023/10/23 02:59:06;;;;;;;8.75;4.97;;;15.80;99.90;;;;;;4903896;29;20040;-86
2023/10/23 03:01:34;;;;;;;10.43;5.13;;;15.80;99.90;;;;;;4888396;29;20107;-83
2023/10/23 03:04:01;;;;;;;8.38;5.28;;;15.80;99.90;;;;;;4888468;29;20370;-87
2023/10/23 03:06:27;;;;;;;9.85;5.18;;;15.70;99.90;;;;;;4904128;29;20083;-87
2023/10/23 03:08:54;;;;;;;11.27;5.43;;;15.70;99.90;;;;;;4904206;29;20083;-87
2023/10/23 03:11:20;;;;;;;10.50;5.05;;;15.80;99.90;;;;;;4887920;29;20039;-81
2023/10/23 03:13:47;;;;;;;8.50;4.53;;;15.70;99.90;;;;;;4884488;29;20075;-80
2023/10/23 03:16:17;;;;;;;12.43;5.20;;;15.70;99.90;;;;;;4900864;29;20021;-81
2023/10/23 03:18:44;;;;;;;9.35;5.55;;;15.60;99.90;;;;;;4883884;29;20108;-81
2023/10/23 03:21:11;;;;;;;7.95;4.60;;;15.60;99.90;;;;;;4883648;29;20067;-79
2023/10/23 03:23:37;;;;;;;8.48;5.05;;;15.50;99.90;;;;;;4900643;29;20032;-79
2023/10/23 03:26:04;;;;;;;9.02;5.65;;;15.50;99.90;;;;;;4902625;29;20031;-79
2023/10/23 03:28:30;;;;;;;13.50;6.22;;;15.50;99.90;;;;;;4902439;29;20036;-80
2023/10/23 03:31:03;;;;;;;9.38;5.45;;;15.40;99.90;;;;;;4919330;29;20028;-80
2023/10/23 03:33:32;;;;;;;10.73;6.07;;;15.40;99.90;;;;;;4917679;29;20032;-80
2023/10/23 03:35:58;;;;;;;16.35;5.40;;;15.50;99.90;;;;;;4919264;29;20024;-80
2023/10/23 03:38:25;;;;;;;15.05;5.75;;;15.50;99.90;;;;;;4919123;29;20044;-79
2023/10/23 03:41:00;;;;;;;8.75;5.20;;;15.50;99.90;;;;;;4919261;29;20036;-80
2023/10/23 03:43:27;;;;;;;12.50;5.03;;;15.50;99.90;;;;;;4903856;29;20028;-80
2023/10/23 03:45:54;;;;;;;11.68;4.85;;;15.50;99.90;;;;;;4900279;29;20024;-81
2023/10/23 03:48:21;;;;;;;13.23;4.70;;;15.50;99.90;;;;;;4898664;29;20032;-80
2023/10/23 03:50:47;;;;;;;13.52;5.07;;;15.40;99.90;;;;;;4899775;29;20083;-84
2023/10/23 03:53:14;;;;;;;9.27;5.45;;;15.40;99.90;;;;;;4902269;29;20032;-83
2023/10/23 03:55:41;;;;;;;8.23;5.35;;;15.40;99.90;;;;;;4902248;29;20025;-82
2023/10/23 03:58:07;;;;;;;11.38;4.80;;;15.40;99.90;;;;;;4917705;29;20164;-82
2023/10/23 04:00:33;;;;;;;10.18;5.10;;;15.40;99.90;;;;;;4918890;29;20529;-82
2023/10/23 04:03:00;;;;;;;11.77;5.97;;;15.40;99.90;;;;;;4874907;29;20391;-82
2023/10/23 04:05:26;;;;;;;10.32;5.10;;;15.50;99.90;;;;;;4898686;29;20363;-82
2023/10/23 04:07:53;;;;;;;11.93;5.15;;;15.50;99.90;;;;;;4899889;29;20029;-81
2023/10/23 04:10:19;;;;;;;10.40;5.32;;;15.50;99.90;;;;;;4899818;29;20036;-81
2023/10/23 04:12:46;;;;;;;16.90;4.70;;;15.50;99.90;;;;;;4907983;29;20028;-82
2023/10/23 04:15:12;;;;;;;5.18;4.68;;;15.50;99.90;;;;;;4901825;29;20511;-81
2023/10/23 04:17:39;;;;;;;7.00;5.05;;;15.40;99.90;;;;;;4919344;29;20032;-88
2023/10/23 04:20:08;;;;;;;16.58;5.75;;;15.40;99.90;;;;;;4893667;29;20117;-86
2023/10/23 04:22:35;;;;;;;6.35;5.30;;;15.30;99.90;;;;;;4880332;29;20037;-86
2023/10/23 04:25:02;;;;;;;10.32;5.32;;;15.30;99.90;;;;;;4865381;29;20033;-86
2023/10/23 04:27:28;;;;;;;10.75;5.15;;;15.30;99.90;;;;;;4880595;29;20043;-85
2023/10/23 04:29:56;;;;;;;10.05;4.90;;;15.30;99.90;;;;;;4880437;29;20025;-85
2023/10/23 04:32:27;;;;;;;10.40;4.90;;;15.30;99.90;;;;;;4880351;29;20033;-86
2023/10/23 04:34:54;;;;;;;12.60;5.60;;;15.30;99.90;;;;;;4896085;29;20056;-86
2023/10/23 04:37:20;;;;;;;6.88;4.75;;;15.20;99.90;;;;;;4865333;29;20053;-86
2023/10/23 04:39:47;;;;;;;7.72;5.10;;;15.20;99.90;;;;;;4879988;29;20064;-86
2023/10/23 04:42:13;;;;;;;13.60;6.18;;;15.10;99.90;;;;;;4865058;29;20415;-86
2023/10/23 04:44:39;;;;;;;11.48;5.72;;;15.10;99.90;;;;;;4880449;29;20037;-86
2023/10/23 04:47:06;;;;;;;9.02;5.82;;;15.10;99.90;;;;;;4880464;29;20064;-87
2023/10/23 04:49:32;;;;;;;11.25;5.72;;;15.10;99.90;;;;;;4895977;29;20121;-86
2023/10/23 04:51:59;;;;;;;9.90;5.95;;;15.10;99.90;;;;;;4895928;29;20084;-86
2023/10/23 04:54:25;;;;;;;8.50;5.40;;;15.10;99.90;;;;;;4864895;29;20569;-86
2023/10/23 04:56:52;;;;;;;8.63;5.78;;;15.10;99.90;;;;;;4880296;29;20085;-86
2023/10/23 04:59:18;;;;;;;15.70;5.50;;;15.20;99.90;;;;;;4885153;29;20495;-86
2023/10/23 05:01:44;;;;;;;15.77;5.63;;;15.20;99.90;;;;;;4849388;29;20475;-87
2023/10/23 05:04:11;;;;;;;16.00;5.78;;;15.20;99.90;;;;;;4865058;29;20430;-86
2023/10/23 05:06:38;;;;;;;15.40;5.90;;;15.20;99.90;;;;;;4849250;29;20029;-85
2023/10/23 05:09:04;;;;;;;10.15;5.40;;;15.30;99.90;;;;;;4864391;29;20037;-87
2023/10/23 05:11:32;;;;;;;14.23;5.43;;;15.30;99.90;;;;;;4849233;29;20032;-88
2023/10/23 05:13:59;;;;;;;8.65;5.22;;;15.30;99.90;;;;;;4864850;29;20039;-86
2023/10/23 05:16:25;;;;;;;13.10;5.80;;;15.40;99.90;;;;;;4864665;29;20029;-86
2023/10/23 05:18:51;;;;;;;9.10;5.63;;;15.40;99.90;;;;;;4881042;29;20045;-86
2023/10/23 05:21:17;;;;;;;8.43;5.28;;;15.40;99.90;;;;;;4874824;29;20135;-87
2023/10/23 05:23:44;;;;;;;8.07;5.18;;;15.40;99.90;;;;;;4883361;29;20459;-87
2023/10/23 05:26:11;;;;;;;8.35;5.40;;;15.50;99.90;;;;;;4883089;29;20032;-87
2023/10/23 05:28:40;;;;;;;9.02;4.93;;;15.50;99.90;;;;;;4898609;29;20550;-86
2023/10/23 05:31:08;;;;;;;14.43;6.07;;;15.60;99.90;;;;;;4898246;29;20112;-87
2023/10/23 05:33:35;;;;;;;12.75;5.60;;;15.70;99.90;;;;;;4885293;29;20029;-85
2023/10/23 05:36:06;;;;;;;12.50;5.38;;;15.80;99.90;;;;;;4901059;29;20032;-86
2023/10/23 05:38:33;;;;;;;15.60;5.88;;;16.00;99.90;;;;;;4900716;29;20047;-84
2023/10/23 05:41:00;;;;;;;10.70;5.18;;;16.10;99.90;;;;;;4885406;29;20028;-84
2023/10/23 05:43:27;;;;;;;11.82;5.30;;;16.30;99.90;;;;;;4897953;29;20028;-84
2023/10/23 05:46:01;;;;;;;11.35;5.72;;;16.40;99.90;;;;;;4900771;29;20024;-85
2023/10/23 05:48:27;;;;;;;14.68;6.28;;;16.50;99.90;;;;;;4885650;29;20057;-86
2023/10/23 05:50:58;;;;;;;9.82;6.20;;;16.60;99.90;;;;;;4901031;29;20028;-85
2023/10/23 05:53:25;;;;;;;11.90;6.47;;;16.60;99.90;;;;;;4885383;29;20067;-85
2023/10/23 05:55:52;;;;;;;17.08;6.97;;;16.70;99.90;;;;;;4885288;29;20028;-85
2023/10/23 05:58:20;;;;;;;27.63;8.65;;;16.90;99.90;;;;;;4900671;29;20040;-85
2023/10/23 06:00:47;;;;;;;22.55;7.53;;;17.00;99.90;;;;;;4900778;29;20066;-86
2023/10/23 06:03:13;;;;;;;18.27;7.45;;;17.20;99.90;;;;;;4889855;29;20367;-83
2023/10/23 06:05:41;;;;;;;20.52;6.60;;;17.50;99.90;;;;;;4916778;29;20393;-83
2023/10/23 06:08:08;;;;;;;15.95;7.82;;;17.80;99.90;;;;;;4900198;29;20032;-83
2023/10/23 06:10:42;;;;;;;15.98;8.55;;;18.10;99.90;;;;;;4884350;29;20097;-82
2023/10/23 06:13:12;;;;;;;19.27;10.65;;;18.40;99.90;;;;;;4914765;29;20036;-83
2023/10/23 06:15:39;;;;;;;16.77;11.55;;;18.60;99.90;;;;;;4884293;29;20087;-83
2023/10/23 06:18:06;;;;;;;23.00;15.07;;;18.80;99.90;;;;;;4884136;29;20390;-82
2023/10/23 06:20:32;;;;;;;21.40;15.75;;;19.10;99.90;;;;;;4893234;29;20053;-82
2023/10/23 06:22:59;;;;;;;25.38;17.25;;;19.30;99.90;;;;;;4874181;29;20029;-83
2023/10/23 06:25:26;;;;;;;20.20;18.23;;;19.50;99.90;;;;;;4876333;29;20992;-82
2023/10/23 06:27:53;;;;;;;24.55;18.67;;;19.70;99.90;;;;;;4861329;29;20082;-83
2023/10/23 06:30:23;;;;;;;22.17;19.30;;;19.80;99.90;;;;;;4860631;29;20033;-84
2023/10/23 06:32:50;;;;;;;22.17;19.75;;;20.10;99.90;;;;;;4882104;29;20111;-83
2023/10/23 06:35:17;;;;;;;22.85;20.40;;;20.30;99.90;;;;;;4878813;29;20063;-83
2023/10/23 06:37:43;;;;;;;23.55;21.40;;;20.50;99.90;;;;;;4877801;29;20386;-84
2023/10/23 06:40:10;;;;;;;25.52;22.67;;;20.60;99.90;;;;;;4878679;29;20044;-83
2023/10/23 06:42:36;;;;;;;30.88;23.63;;;21.00;99.90;;;;;;4878529;29;20085;-84
2023/10/23 06:45:03;;;;;;;30.13;22.92;;;21.10;99.90;;;;;;4877699;29;20108;-84
2023/10/23 06:47:29;;;;;;;28.08;21.02;;;21.30;99.90;;;;;;4877547;29;20025;-84
2023/10/23 06:49:59;;;;;;;33.88;22.48;;;21.60;99.90;;;;;;4877776;29;20029;-83
2023/10/23 06:52:26;;;;;;;24.30;22.08;;;21.80;99.90;;;;;;4878756;29;20465;-83
2023/10/23 06:54:52;;;;;;;24.50;22.20;;;21.80;99.90;;;;;;4877773;29;20025;-84
2023/10/23 06:57:22;;;;;;;23.55;21.45;;;22.10;99.90;;;;;;4877753;29;20066;-84
2023/10/23 06:59:48;;;;;;;24.15;22.05;;;22.30;99.90;;;;;;4877299;29;20041;-84
2023/10/23 07:02:15;;;;;;;24.60;22.60;;;22.50;99.90;;;;;;4877369;29;20032;-84
2023/10/23 07:04:41;;;;;;;24.20;22.13;;;22.50;99.90;;;;;;4860970;29;20033;-84
2023/10/23 07:07:07;;;;;;;24.67;22.45;;;22.70;99.90;;;;;;4861728;29;20036;-84
2023/10/23 07:09:33;;;;;;;25.40;23.15;;;22.80;99.90;;;;;;4878810;29;20029;-84
2023/10/23 07:12:00;;;;;;;25.88;23.88;;;23.00;99.90;;;;;;4878686;29;20052;-84
2023/10/23 07:14:26;;;;;;;25.33;23.15;;;23.10;99.90;;;;;;4861679;29;20112;-84
2023/10/23 07:16:53;;;;;;;27.40;24.67;;;23.30;99.90;;;;;;4878280;29;20364;-84
2023/10/23 07:19:19;;;;;;;29.50;26.95;;;23.50;99.90;;;;;;4878024;29;20064;-84
2023/10/23 07:21:45;;;;;;;31.52;28.38;;;23.60;99.90;;;;;;4883326;29;20132;-84
2023/10/23 07:24:12;;;;;;;32.45;29.50;;;23.60;99.90;;;;;;4919544;29;20063;-84
2023/10/23 07:26:40;;;;;;;32.75;29.70;;;24.00;99.90;;;;;;4901472;29;20115;-84
2023/10/23 07:29:08;;;;;;;32.92;29.73;;;24.10;99.90;;;;;;4887072;29;20097;-84
2023/10/23 07:31:36;;;;;;;30.30;27.70;;;24.10;99.90;;;;;;4900180;29;20040;-83
2023/10/23 07:34:08;;;;;;;29.60;26.73;;;24.00;99.90;;;;;;4902328;29;20084;-84
2023/10/23 07:36:34;;;;;;;26.58;24.52;;;24.20;99.90;;;;;;4918273;29;20445;-84
2023/10/23 07:39:01;;;;;;;27.15;24.85;;;24.50;99.90;;;;;;4902694;29;20509;-84
2023/10/23 07:41:28;;;;;;;26.90;24.73;;;24.40;99.90;;;;;;4918382;29;20477;-84
2023/10/23 07:43:55;;;;;;;28.67;26.30;;;24.30;99.90;;;;;;4899167;29;20039;-84
2023/10/23 07:46:22;;;;;;;28.52;26.13;;;24.20;99.90;;;;;;4883385;29;20032;-84
2023/10/23 07:48:49;;;;;;;29.27;26.50;;;24.20;99.90;;;;;;4883497;29;20031;-84
2023/10/23 07:51:15;;;;;;;30.25;27.60;;;24.20;99.90;;;;;;4900122;29;20068;-84
2023/10/23 07:53:42;;;;;;;29.80;27.20;;;24.30;99.90;;;;;;4902015;29;20055;-87
2023/10/23 07:56:12;;;;;;;30.52;27.70;;;24.60;99.90;;;;;;4902076;29;20035;-83
2023/10/23 07:58:39;;;;;;;29.83;27.25;;;24.90;99.90;;;;;;4917717;29;20048;-86
2023/10/23 08:01:13;;;;;;;29.42;26.77;;;24.90;99.90;;;;;;4886274;29;20025;-85
2023/10/23 08:03:39;;;;;;;30.08;27.17;;;24.60;99.90;;;;;;4918853;29;20045;-88
2023/10/23 08:06:08;;;;;;;29.35;26.95;;;24.60;99.90;;;;;;4917730;29;20038;-85
2023/10/23 08:08:36;;;;;;;29.52;27.02;;;24.80;99.90;;;;;;4902102;29;20050;-85
2023/10/23 08:11:04;;;;;;;28.90;26.45;;;24.80;99.90;;;;;;4901991;29;20123;-87
2023/10/23 08:13:31;;;;;;;29.23;26.63;;;24.80;99.90;;;;;;4890237;29;20024;-86
2023/10/23 08:15:58;;;;;;;29.70;27.30;;;25.00;99.90;;;;;;4899074;29;20083;-86
2023/10/23 08:18:24;;;;;;;29.42;26.98;;;24.80;99.90;;;;;;4901292;29;20041;-84
2023/10/23 08:20:51;;;;;;;29.17;26.88;;;24.80;99.90;;;;;;4882954;29;20060;-82
2023/10/23 08:23:18;;;;;;;27.73;25.52;;;25.00;99.90;;;;;;4892725;29;20040;-83
2023/10/23 08:25:44;;;;;;;28.52;26.02;;;24.90;99.90;;;;;;4906586;29;20490;-83
2023/10/23 08:28:11;;;;;;;28.38;25.92;;;24.90;99.90;;;;;;4898264;29;20407;-85
2023/10/23 08:30:37;;;;;;;27.95;26.05;;;24.90;99.90;;;;;;4882545;29;20145;-83
2023/10/23 08:33:05;;;;;;;28.15;25.98;;;24.90;99.90;;;;;;4907313;29;20111;-84
2023/10/23 08:35:32;;;;;;;28.15;25.95;;;24.80;99.90;;;;;;4900948;29;20590;-83
2023/10/23 08:37:58;;;;;;;29.02;26.58;;;25.00;99.90;;;;;;4918191;29;20032;-81
2023/10/23 08:40:25;;;;;;;29.33;26.52;;;25.10;99.90;;;;;;4918174;29;20032;-83
2023/10/23 08:42:52;;;;;;;29.05;26.23;;;24.80;99.90;;;;;;4904230;29;20478;-84
2023/10/23 08:45:18;;;;;;;28.98;26.23;;;24.80;99.90;;;;;;4901101;29;20039;-82
2023/10/23 08:47:45;;;;;;;28.60;26.08;;;24.80;99.90;;;;;;4901318;29;20044;-81
2023/10/23 08:50:12;;;;;;;28.65;25.95;;;24.90;99.90;;;;;;4917893;29;20024;-80
2023/10/23 08:53:01;;;;;;;28.67;26.02;;;25.00;99.90;;;;;;4897925;29;20024;-80
2023/10/23 08:55:30;;;;;;;27.63;25.35;;;25.30;99.90;;;;;;4899053;29;20029;-80
2023/10/23 08:57:59;;;;;;;26.42;24.45;;;25.50;99.90;;;;;;4882207;29;20062;-80
2023/10/23 09:00:26;;;;;;;32.30;26.00;;;25.40;99.90;;;;;;4899037;29;20029;-82
2023/10/23 09:02:52;;;;;;;27.45;24.85;;;25.40;99.90;;;;;;4908636;29;20378;-83
2023/10/23 09:05:19;;;;;;;25.42;23.58;;;25.30;99.90;;;;;;4900889;29;20040;-85
2023/10/23 09:07:46;;;;;;;26.42;24.17;;;25.20;99.90;;;;;;4900996;29;20028;-82
2023/10/23 09:10:12;;;;;;;26.42;24.10;;;25.30;99.90;;;;;;4900936;29;20029;-83
2023/10/23 09:12:40;;;;;;;27.05;24.88;;;25.30;99.90;;;;;;4900378;29;20039;-84
2023/10/23 09:15:17;;;;;;;27.17;24.88;;;25.50;99.90;;;;;;4900448;29;20076;-84
2023/10/23 09:17:44;;;;;;;26.27;24.35;;;25.60;99.90;;;;;;4903699;29;20042;-85
2023/10/23 09:20:19;;;;;;;26.75;24.65;;;25.60;99.90;;;;;;4902170;29;20494;-84
2023/10/23 09:22:47;;;;;;;26.52;24.38;;;25.60;99.90;;;;;;4900212;29;20394;-82
2023/10/23 09:25:18;;;;;;;26.67;24.23;;;25.60;99.90;;;;;;4917368;29;20481;-84
2023/10/23 09:27:45;;;;;;;26.80;24.52;;;25.50;99.90;;;;;;4884712;29;20032;-86
2023/10/23 09:30:13;;;;;;;26.60;24.35;;;25.60;99.90;;;;;;4900382;29;20032;-84
2023/10/23 09:32:40;;;;;;;26.58;24.48;;;25.80;99.90;;;;;;4900381;29;20060;-85
2023/10/23 09:35:10;;;;;;;26.40;24.58;;;25.70;99.90;;;;;;4900755;29;20095;-84
2023/10/23 09:37:37;;;;;;;26.92;24.58;;;25.70;99.90;;;;;;4899749;29;20110;-85
2023/10/23 09:40:08;;;;;;;26.63;24.42;;;25.80;99.90;;;;;;4917300;29;20032;-85
2023/10/23 09:42:35;;;;;;;26.17;24.17;;;25.50;99.90;;;;;;4900746;29;20063;-86
2023/10/23 09:45:03;;;;;;;27.40;25.20;;;25.80;99.90;;;;;;4885395;29;20028;-85
2023/10/23 09:47:30;;;;;;;26.45;24.35;;;25.70;99.90;;;;;;4899413;29;20063;-85
2023/10/23 09:49:58;;;;;;;26.27;24.08;;;25.70;99.90;;;;;;4900553;29;20032;-86
2023/10/23 09:52:26;;;;;;;26.38;24.20;;;25.70;99.90;;;;;;4900532;29;20032;-85
2023/10/23 09:55:01;;;;;;;26.23;24.10;;;25.90;99.90;;;;;;4900308;29;20028;-85
2023/10/23 09:57:33;;;;;;;26.85;24.48;;;25.90;99.90;;;;;;4900243;29;20035;-84
2023/10/23 10:00:13;;;;;;;27.23;25.10;;;25.90;99.90;;;;;;4915977;29;20135;-86
2023/10/23 10:02:45;;;;;;;27.23;25.20;;;26.00;99.90;;;;;;4881640;29;20128;-85
2023/10/23 10:05:16;;;;;;;26.60;24.50;;;25.90;99.90;;;;;;4900123;29;20071;-85
2023/10/23 10:08:07;;;;;;;26.77;24.98;;;25.80;99.90;;;;;;4899566;29;20032;-84
2023/10/23 10:10:35;;;;;;;27.52;25.33;;;25.90;99.90;;;;;;4893351;29;20486;-85
2023/10/23 10:13:03;;;;;;;27.20;25.00;;;25.90;99.90;;;;;;4884756;29;20079;-87
2023/10/23 10:15:31;;;;;;;27.52;25.20;;;26.10;99.90;;;;;;4884725;29;20028;-86
2023/10/23 10:17:57;;;;;;;27.50;25.38;;;26.10;99.90;;;;;;4916130;29;20039;-87
2023/10/23 10:20:29;;;;;;;27.75;25.35;;;26.20;99.90;;;;;;4900163;29;20410;-87
2023/10/23 10:23:06;;;;;;;26.92;24.73;;;26.20;99.90;;;;;;4900840;29;20036;-86
2023/10/23 10:25:35;;;;;;;27.20;25.25;;;25.90;99.90;;;;;;4900948;29;20028;-87
2023/10/23 10:28:07;;;;;;;27.33;25.23;;;25.90;99.90;;;;;;4900299;29;20060;-86
2023/10/23 10:30:42;;;;;;;27.88;25.50;;;25.90;99.90;;;;;;4900708;29;20039;-86
2023/10/23 10:33:20;;;;;;;27.77;25.30;;;26.00;99.90;;;;;;4912683;29;20478;-85
2023/10/23 10:35:51;;;;;;;27.50;25.27;;;26.20;99.90;;;;;;4900052;29;20482;-85
2023/10/23 10:38:22;;;;;;;26.85;24.60;;;25.90;99.90;;;;;;4900596;29;20131;-83
2023/10/23 10:41:17;;;;;;;27.20;25.02;;;26.00;99.90;;;;;;4900239;29;20043;-88
2023/10/23 10:43:52;;;;;;;28.15;26.05;;;26.20;99.90;;;;;;4923704;29;20033;-81
2023/10/23 10:46:22;;;;;;;29.98;27.67;;;26.10;99.90;;;;;;4916252;29;20498;-81
2023/10/23 10:48:51;;;;;;;27.50;25.50;;;25.90;99.90;;;;;;4916440;29;20111;-83
2023/10/23 10:51:23;;;;;;;28.35;26.00;;;26.00;99.90;;;;;;4883895;29;20028;-81
2023/10/23 10:54:00;;;;;;;28.00;25.58;;;26.00;99.90;;;;;;4904871;29;20036;-86
2023/10/23 10:56:27;;;;;;;28.05;26.05;;;25.90;99.90;;;;;;4899371;29;20067;-81
2023/10/23 10:58:53;;;;;;;28.98;26.10;;;25.90;99.90;;;;;;4918118;29;20032;-82
2023/10/23 11:01:24;;;;;;;28.98;26.52;;;26.20;99.90;;;;;;4904063;29;20060;-85
2023/10/23 11:03:51;;;;;;;29.75;26.90;;;26.30;99.90;;;;;;4900108;29;20090;-82
2023/10/23 11:06:18;;;;;;;28.88;26.65;;;26.20;99.90;;;;;;4887528;29;20123;-81
2023/10/23 11:08:47;;;;;;;29.33;27.00;;;26.30;99.90;;;;;;4919762;29;20549;-80
2023/10/23 11:11:13;;;;;;;30.00;27.70;;;26.00;99.90;;;;;;4903049;29;20036;-83
2023/10/23 11:13:43;;;;;;;29.95;27.48;;;26.00;99.90;;;;;;4900027;29;20029;-82
2023/10/23 11:16:11;;;;;;;31.23;28.90;;;26.30;99.90;;;;;;4903973;29;20382;-87
2023/10/23 11:18:38;;;;;;;29.52;27.15;;;26.40;99.90;;;;;;4905002;29;20043;-85
2023/10/23 11:21:05;;;;;;;30.02;27.75;;;26.30;99.90;;;;;;4889256;29;20056;-85
2023/10/23 11:23:32;;;;;;;29.48;27.42;;;26.20;99.90;;;;;;4904577;29;20028;-85
2023/10/23 11:25:58;;;;;;;29.83;27.42;;;26.10;99.90;;;;;;4887648;29;20434;-85
2023/10/23 11:28:25;;;;;;;29.58;27.10;;;26.20;99.90;;;;;;4887593;29;20036;-86
2023/10/23 11:30:56;;;;;;;29.30;27.00;;;26.20;99.90;;;;;;4902708;29;20031;-87
2023/10/23 11:33:23;;;;;;;29.85;27.42;;;26.40;99.90;;;;;;4884269;29;20041;-88
2023/10/23 11:35:52;;;;;;;28.92;26.38;;;26.40;99.90;;;;;;4903150;29;20496;-86
2023/10/23 11:38:21;;;;;;;29.52;27.08;;;26.40;99.90;;;;;;4887614;29;20072;-86
2023/10/23 11:40:48;;;;;;;28.27;26.27;;;26.50;99.90;;;;;;4903311;29;20028;-85
2023/10/23 11:43:15;;;;;;;29.60;27.20;;;26.20;99.90;;;;;;4899188;29;20402;-82
2023/10/23 11:45:44;;;;;;;28.98;26.77;;;26.00;99.90;;;;;;4900655;29;20378;-84
2023/10/23 11:48:15;;;;;;;29.08;26.85;;;26.00;99.90;;;;;;4899331;29;20088;-85
2023/10/23 11:50:42;;;;;;;30.45;27.60;;;26.10;99.90;;;;;;4883753;29;20070;-83
2023/10/23 11:53:09;;;;;;;29.20;26.77;;;26.20;99.90;;;;;;4914783;29;20035;-85
2023/10/23 11:55:37;;;;;;;29.52;27.10;;;26.40;99.90;;;;;;4903147;29;20063;-86
2023/10/23 11:58:04;;;;;;;28.90;26.73;;;26.30;99.90;;;;;;4886901;29;20021;-83
2023/10/23 12:00:35;;;;;;;30.48;27.77;;;26.40;99.90;;;;;;4919609;29;20483;-85
2023/10/23 12:03:03;;;;;;;29.63;27.30;;;26.50;99.90;;;;;;4903368;29;20063;-83
2023/10/23 12:05:31;;;;;;;30.02;27.73;;;26.50;99.90;;;;;;4902385;29;20032;-83
2023/10/23 12:07:58;;;;;;;30.02;27.67;;;26.60;99.90;;;;;;4902280;29;20036;-86
2023/10/23 12:10:28;;;;;;;29.73;27.48;;;26.50;99.90;;;;;;4902082;29;20477;-88
2023/10/23 12:12:55;;;;;;;29.85;27.52;;;26.60;99.90;;;;;;4886759;29;20029;-85
2023/10/23 12:15:23;;;;;;;30.90;28.20;;;26.60;99.90;;;;;;4899024;29;20088;-85
2023/10/23 12:17:53;;;;;;;30.35;27.85;;;26.50;99.90;;;;;;4902176;29;20044;-87
2023/10/23 12:20:21;;;;;;;29.73;27.50;;;26.60;99.90;;;;;;4902200;29;20056;-87
2023/10/23 12:22:49;;;;;;;29.13;27.05;;;26.60;99.90;;;;;;4917816;29;20517;-84
2023/10/23 12:25:16;;;;;;;33.83;30.65;;;26.50;99.90;;;;;;4918780;29;20040;-85
2023/10/23 12:27:42;;;;;;;30.00;27.35;;;26.50;99.90;;;;;;4918033;29;20040;-85
2023/10/23 12:30:11;;;;;;;25.90;23.85;;;26.60;99.90;;;;;;4917889;29;20027;-88
2023/10/23 12:32:44;;;;;;;25.35;23.35;;;26.20;99.90;;;;;;4902002;29;20108;-85
2023/10/23 12:35:13;;;;;;;26.13;24.02;;;25.90;99.90;;;;;;4901833;29;20051;-84
2023/10/23 12:37:40;;;;;;;25.20;23.13;;;25.50;99.90;;;;;;4918487;29;20031;-83